createdAt,value
2018-04-14T00:00:44.320Z,12.03
2018-04-14T00:03:11.713Z,11.57
2018-04-14T00:05:39.149Z,11.93
2018-04-14T00:08:06.535Z,11.67
2018-04-14T00:10:33.925Z,12.40
2018-04-14T00:13:01.336Z,11.70
2018-04-14T00:15:28.724Z,11.10
2018-04-14T00:17:56.233Z,11.40
2018-04-14T00:20:23.600Z,12.90
2018-04-14T00:22:50.989Z,11.43
2018-04-14T00:25:18.501Z,11.70
2018-04-14T00:27:45.961Z,12.00
2018-04-14T00:30:13.388Z,11.43
2018-04-14T00:32:40.772Z,11.63
2018-04-14T00:35:08.140Z,11.73
2018-04-14T00:37:35.540Z,11.20
2018-04-14T00:40:02.966Z,11.83
2018-04-14T00:42:30.319Z,12.07
2018-04-14T00:44:57.747Z,13.00
2018-04-14T00:47:25.148Z,10.97
2018-04-14T00:49:52.526Z,12.93
2018-04-14T00:52:19.959Z,12.50
2018-04-14T00:54:48.162Z,13.07
2018-04-14T00:57:15.551Z,12.80
2018-04-14T00:59:42.938Z,14.10
2018-04-14T01:02:10.336Z,14.30
2018-04-14T01:04:37.723Z,15.47
2018-04-14T01:07:05.121Z,16.40
2018-04-14T01:09:32.473Z,17.13
2018-04-14T01:11:59.885Z,16.20
2018-04-14T01:14:27.388Z,17.00
2018-04-14T01:16:54.775Z,16.80
2018-04-14T01:19:22.217Z,17.33
2018-04-14T01:21:49.574Z,15.47
2018-04-14T01:24:16.931Z,15.73
2018-04-14T01:26:44.348Z,16.80
2018-04-14T01:29:11.775Z,15.17
2018-04-14T01:31:39.163Z,14.40
2018-04-14T01:34:06.548Z,14.70
2018-04-14T01:36:33.939Z,16.10
2018-04-14T01:39:01.498Z,15.63
2018-04-14T01:41:28.911Z,14.73
2018-04-14T01:43:56.270Z,16.53
2018-04-14T01:46:23.622Z,17.40
2018-04-14T01:48:51.023Z,17.20
2018-04-14T01:51:18.418Z,17.50
2018-04-14T01:53:45.766Z,19.07
2018-04-14T01:56:13.144Z,18.33
2018-04-14T01:58:41.587Z,18.57
2018-04-14T02:01:09.031Z,20.00
2018-04-14T02:03:36.420Z,18.60
2018-04-14T02:06:03.849Z,18.77
2018-04-14T02:08:31.198Z,18.87
2018-04-14T02:10:58.573Z,19.83
2018-04-14T02:13:25.978Z,19.33
2018-04-14T02:15:53.365Z,19.27
2018-04-14T02:18:20.779Z,19.23
2018-04-14T02:20:48.171Z,19.50
2018-04-14T02:23:15.593Z,18.93
2018-04-14T02:25:43.038Z,19.23
2018-04-14T02:28:10.400Z,19.67
2018-04-14T02:30:37.831Z,19.73
2018-04-14T02:33:05.229Z,21.53
2018-04-14T02:35:32.698Z,21.00
2018-04-14T02:38:00.121Z,19.73
2018-04-14T02:40:27.482Z,19.57
2018-04-14T02:42:54.835Z,18.70
2018-04-14T02:45:22.256Z,20.10
2018-04-14T02:47:49.656Z,19.57
2018-04-14T02:50:17.067Z,19.97
2018-04-14T02:52:44.476Z,19.40
2018-04-14T02:55:11.912Z,19.53
2018-04-14T02:57:39.330Z,21.10
2018-04-14T03:00:06.675Z,21.10
2018-04-14T03:02:34.086Z,21.37
2018-04-14T03:05:01.499Z,21.37
2018-04-14T03:07:28.870Z,21.47
2018-04-14T03:09:56.312Z,21.70
2018-04-14T03:12:23.855Z,21.97
2018-04-14T03:14:51.238Z,22.80
2018-04-14T03:17:18.635Z,21.00
2018-04-14T03:19:46.111Z,22.27
2018-04-14T03:22:13.464Z,22.67
2018-04-14T03:24:41.216Z,22.63
2018-04-14T03:27:08.600Z,24.20
2018-04-14T03:29:35.995Z,23.60
2018-04-14T03:32:03.350Z,24.00
2018-04-14T03:34:30.712Z,24.07
2018-04-14T03:36:58.118Z,24.37
2018-04-14T03:39:25.506Z,25.63
2018-04-14T03:41:52.863Z,24.47
2018-04-14T03:44:20.439Z,24.67
2018-04-14T03:46:47.960Z,22.80
2018-04-14T03:49:15.307Z,21.90
2018-04-14T03:51:42.716Z,22.77
2018-04-14T03:54:10.072Z,20.90
2018-04-14T03:56:37.473Z,21.70
2018-04-14T03:59:04.903Z,23.13
2018-04-14T04:01:32.370Z,24.27
2018-04-14T04:03:59.777Z,24.10
2018-04-14T04:06:27.184Z,23.40
2018-04-14T04:08:54.573Z,24.23
2018-04-14T04:11:21.975Z,25.90
2018-04-14T04:13:49.337Z,26.87
2018-04-14T04:16:16.807Z,22.60
2018-04-14T04:18:49.948Z,23.70
2018-04-14T04:21:23.187Z,24.50
2018-04-14T04:23:56.637Z,23.97
2018-04-14T04:26:24.030Z,20.57
2018-04-14T04:28:51.446Z,19.13
2018-04-14T04:31:18.824Z,16.23
2018-04-14T04:33:46.239Z,19.50
2018-04-14T04:36:13.644Z,18.70
2018-04-14T04:38:41.030Z,19.33
2018-04-14T04:41:08.950Z,21.63
2018-04-14T04:43:36.340Z,20.87
2018-04-14T04:46:03.732Z,22.53
2018-04-14T04:48:31.738Z,23.47
2018-04-14T04:50:59.125Z,24.83
2018-04-14T04:53:26.512Z,25.90
2018-04-14T04:55:53.943Z,28.07
2018-04-14T04:58:21.328Z,30.80
2018-04-14T05:00:48.716Z,32.10
2018-04-14T05:03:16.798Z,33.20
2018-04-14T05:05:44.208Z,37.50
2018-04-14T05:08:11.621Z,36.13
2018-04-14T05:10:40.011Z,39.30
2018-04-14T05:13:07.497Z,38.30
2018-04-14T05:15:34.882Z,36.20
2018-04-14T05:18:02.247Z,39.20
2018-04-14T05:20:29.602Z,36.73
2018-04-14T05:22:56.983Z,42.00
2018-04-14T05:25:24.338Z,43.63
2018-04-14T05:27:51.689Z,42.87
2018-04-14T05:30:19.100Z,42.83
2018-04-14T05:32:46.498Z,43.40
2018-04-14T05:35:13.878Z,40.40
2018-04-14T05:37:41.323Z,40.73
2018-04-14T05:40:08.742Z,41.07
2018-04-14T05:42:36.160Z,37.73
2018-04-14T05:45:03.591Z,34.67
2018-04-14T05:47:30.954Z,35.70
2018-04-14T05:49:58.402Z,34.97
2018-04-14T05:52:25.795Z,35.10
2018-04-14T05:54:53.154Z,34.77
2018-04-14T05:57:20.545Z,25.73
2018-04-14T05:59:47.956Z,34.50
2018-04-14T06:02:15.344Z,32.47
2018-04-14T06:04:42.706Z,33.20
2018-04-14T06:07:10.087Z,32.97
2018-04-14T06:09:37.504Z,35.70
2018-04-14T06:12:04.887Z,35.77
2018-04-14T06:14:32.277Z,33.60
2018-04-14T06:16:59.709Z,31.40
2018-04-14T06:19:27.093Z,30.83
2018-04-14T06:21:54.443Z,28.80
2018-04-14T06:24:21.872Z,31.87
2018-04-14T06:26:49.295Z,27.97
2018-04-14T06:29:17.736Z,31.07
2018-04-14T06:31:45.231Z,32.37
2018-04-14T06:34:12.611Z,32.70
2018-04-14T06:36:40.189Z,32.30
2018-04-14T06:39:07.659Z,31.47
2018-04-14T06:41:35.136Z,32.37
2018-04-14T06:44:02.565Z,34.77
2018-04-14T06:46:29.999Z,35.87
2018-04-14T06:48:57.448Z,34.93
2018-04-14T06:51:24.885Z,34.17
2018-04-14T06:53:52.332Z,33.40
2018-04-14T06:56:19.696Z,33.43
2018-04-14T06:58:47.056Z,34.40
2018-04-14T07:01:14.515Z,36.30
2018-04-14T07:03:41.940Z,36.67
2018-04-14T07:06:09.360Z,37.10
2018-04-14T07:08:36.741Z,37.03
2018-04-14T07:11:04.094Z,36.90
2018-04-14T07:13:31.520Z,40.77
2018-04-14T07:15:58.912Z,39.90
2018-04-14T07:18:26.307Z,39.03
2018-04-14T07:20:53.703Z,38.57
2018-04-14T07:23:21.113Z,38.13
2018-04-14T07:25:48.470Z,40.60
2018-04-14T07:28:15.848Z,34.67
2018-04-14T07:30:43.312Z,41.77
2018-04-14T07:33:10.724Z,42.57
2018-04-14T07:35:38.131Z,42.03
2018-04-14T07:38:05.491Z,42.23
2018-04-14T07:40:32.876Z,46.10
2018-04-14T07:43:00.308Z,42.20
2018-04-14T07:45:27.736Z,43.87
2018-04-14T07:47:55.128Z,44.90
2018-04-14T07:50:22.559Z,44.47
2018-04-14T07:52:49.954Z,45.90
2018-04-14T07:55:17.344Z,45.80
2018-04-14T07:57:44.753Z,42.07
2018-04-14T08:00:12.130Z,45.27
2018-04-14T08:02:39.541Z,43.30
2018-04-14T08:05:06.902Z,45.80
2018-04-14T08:07:34.323Z,43.37
2018-04-14T08:10:01.744Z,45.20
2018-04-14T08:12:29.135Z,44.70
2018-04-14T08:14:56.659Z,39.63
2018-04-14T08:17:24.022Z,41.60
2018-04-14T08:19:51.375Z,42.37
2018-04-14T08:22:18.811Z,44.20
2018-04-14T08:24:46.209Z,42.80
2018-04-14T08:27:13.639Z,41.73
2018-04-14T08:29:41.037Z,41.53
2018-04-14T08:32:11.968Z,41.00
2018-04-14T08:34:39.408Z,38.63
2018-04-14T08:37:06.800Z,42.23
2018-04-14T08:39:34.184Z,41.77
2018-04-14T08:42:01.616Z,40.30
2018-04-14T08:44:29.682Z,40.30
2018-04-14T08:46:57.151Z,36.70
2018-04-14T08:49:24.513Z,38.53
2018-04-14T08:51:51.894Z,35.50
2018-04-14T08:54:19.266Z,37.53
2018-04-14T08:56:46.631Z,38.03
2018-04-14T08:59:14.008Z,39.00
2018-04-14T09:01:41.481Z,36.60
2018-04-14T09:04:08.896Z,37.60
2018-04-14T09:06:36.292Z,36.37
2018-04-14T09:09:03.834Z,35.40
2018-04-14T09:11:31.239Z,36.27
2018-04-14T09:13:58.624Z,37.87
2018-04-14T09:16:25.987Z,34.87
2018-04-14T09:18:53.420Z,33.83
2018-04-14T09:21:20.775Z,32.00
2018-04-14T09:23:48.127Z,31.13
2018-04-14T09:26:15.547Z,32.83
2018-04-14T09:28:42.903Z,30.83
2018-04-14T09:31:10.256Z,32.30
2018-04-14T09:33:37.681Z,30.67
2018-04-14T09:36:05.170Z,31.60
2018-04-14T09:38:32.581Z,30.70
2018-04-14T09:41:00.054Z,28.03
2018-04-14T09:43:27.437Z,30.47
2018-04-14T09:45:54.791Z,29.97
2018-04-14T09:48:22.216Z,29.37
2018-04-14T09:50:49.580Z,27.77
2018-04-14T09:53:16.999Z,27.20
2018-04-14T09:55:44.350Z,26.97
2018-04-14T09:58:11.706Z,26.67
2018-04-14T10:00:44.865Z,26.00
2018-04-14T10:03:18.078Z,24.40
2018-04-14T10:05:45.508Z,25.57
2018-04-14T10:08:12.916Z,25.10
2018-04-14T10:10:40.338Z,26.17
2018-04-14T10:13:07.743Z,25.00
2018-04-14T10:15:35.094Z,23.90
2018-04-14T10:18:02.459Z,23.07
2018-04-14T10:20:30.049Z,23.57
2018-04-14T10:22:57.471Z,23.10
2018-04-14T10:25:24.858Z,21.10
2018-04-14T10:27:52.280Z,22.07
2018-04-14T10:30:19.641Z,21.30
2018-04-14T10:32:46.994Z,21.93
2018-04-14T10:35:14.398Z,21.00
2018-04-14T10:37:41.847Z,23.10
2018-04-14T10:40:09.293Z,21.17
2018-04-14T10:42:36.744Z,22.27
2018-04-14T10:45:04.212Z,23.23
2018-04-14T10:47:31.582Z,21.63
2018-04-14T10:49:58.995Z,21.13
2018-04-14T10:52:26.379Z,22.20
2018-04-14T10:54:53.734Z,20.87
2018-04-14T10:57:21.155Z,20.50
2018-04-14T10:59:48.611Z,20.10
2018-04-14T11:02:16.011Z,20.80
2018-04-14T11:04:43.415Z,20.17
2018-04-14T11:07:10.940Z,21.37
2018-04-14T11:09:38.371Z,20.73
2018-04-14T11:12:05.792Z,20.00
2018-04-14T11:14:33.148Z,20.10
2018-04-14T11:17:00.531Z,21.00
2018-04-14T11:19:27.913Z,21.40
2018-04-14T11:21:55.288Z,21.30
2018-04-14T11:24:22.836Z,20.17
2018-04-14T11:26:50.238Z,23.53
2018-04-14T11:29:17.679Z,23.90
2018-04-14T11:31:45.079Z,22.30
2018-04-14T11:34:12.460Z,20.70
2018-04-14T11:36:39.856Z,21.70
2018-04-14T11:39:07.284Z,22.30
2018-04-14T11:41:34.670Z,21.67
2018-04-14T11:44:02.049Z,22.90
2018-04-14T11:46:29.467Z,23.97
2018-04-14T11:48:56.832Z,22.70
2018-04-14T11:51:24.194Z,21.83
2018-04-14T11:53:51.578Z,21.67
2018-04-14T11:56:19.036Z,22.33
2018-04-14T11:58:46.401Z,22.80
2018-04-14T12:01:13.784Z,23.03
2018-04-14T12:03:41.239Z,21.63
2018-04-14T12:06:08.629Z,22.83
2018-04-14T12:08:36.020Z,23.10
2018-04-14T12:11:03.403Z,21.90
2018-04-14T12:13:31.027Z,23.17
2018-04-14T12:15:58.490Z,21.93
2018-04-14T12:18:25.912Z,22.20
2018-04-14T12:20:53.307Z,22.57
2018-04-14T12:23:20.659Z,21.77
2018-04-14T12:25:48.071Z,20.17
2018-04-14T12:28:15.470Z,21.47
2018-04-14T12:30:42.850Z,25.43
2018-04-14T12:33:10.261Z,28.90
2018-04-14T12:35:37.659Z,32.33
2018-04-14T12:38:05.054Z,32.60
2018-04-14T12:40:32.476Z,35.97
2018-04-14T12:42:59.896Z,38.67
2018-04-14T12:45:27.255Z,41.60
2018-04-14T12:47:54.614Z,39.40
2018-04-14T12:50:22.011Z,39.93
2018-04-14T12:52:52.799Z,39.20
2018-04-14T12:55:20.179Z,35.20
2018-04-14T12:57:47.589Z,35.43
2018-04-14T13:00:14.945Z,37.60
2018-04-14T13:02:42.299Z,35.40
2018-04-14T13:05:09.698Z,37.70
2018-04-14T13:07:37.094Z,38.00
2018-04-14T13:10:04.446Z,36.60
2018-04-14T13:12:31.848Z,34.57
2018-04-14T13:14:59.243Z,34.40
2018-04-14T13:17:26.621Z,34.17
2018-04-14T13:19:54.040Z,35.43
2018-04-14T13:22:21.473Z,33.90
2018-04-14T13:24:48.912Z,34.70
2018-04-14T13:27:16.407Z,31.37
2018-04-14T13:29:43.937Z,31.30
2018-04-14T13:32:11.291Z,31.90
2018-04-14T13:34:38.724Z,29.23
2018-04-14T13:37:06.159Z,32.67
2018-04-14T13:39:33.579Z,35.30
2018-04-14T13:42:01.004Z,38.47
2018-04-14T13:44:28.374Z,29.00
2018-04-14T13:46:55.715Z,26.03
2018-04-14T13:49:23.106Z,25.40
2018-04-14T13:51:50.492Z,26.53
2018-04-14T13:54:17.935Z,25.50
2018-04-14T13:56:45.367Z,27.13
2018-04-14T13:59:12.742Z,25.43
2018-04-14T14:01:40.172Z,24.27
2018-04-14T14:04:07.594Z,25.00
2018-04-14T14:06:34.957Z,25.87
2018-04-14T14:09:02.342Z,24.57
2018-04-14T14:11:29.743Z,24.00
2018-04-14T14:13:57.111Z,24.13
2018-04-14T14:16:24.523Z,25.50
2018-04-14T14:18:51.944Z,24.40
2018-04-14T14:21:19.348Z,25.70
2018-04-14T14:23:46.735Z,25.53
2018-04-14T14:26:14.164Z,27.30
2018-04-14T14:28:41.572Z,25.27
2018-04-14T14:31:08.961Z,25.23
2018-04-14T14:33:36.394Z,25.03
2018-04-14T14:36:03.795Z,25.00
2018-04-14T14:38:31.213Z,26.13
2018-04-14T14:40:58.564Z,24.83
2018-04-14T14:43:25.914Z,24.17
2018-04-14T14:45:53.365Z,26.10
2018-04-14T14:48:20.851Z,23.50
2018-04-14T14:50:48.249Z,23.73
2018-04-14T14:53:15.735Z,23.63
2018-04-14T14:55:43.142Z,23.30
2018-04-14T14:58:10.532Z,23.50
2018-04-14T15:00:37.975Z,23.80
2018-04-14T15:03:05.323Z,24.17
2018-04-14T15:05:32.693Z,23.57
2018-04-14T15:08:00.204Z,23.37
2018-04-14T15:10:27.612Z,23.43
2018-04-14T15:12:56.067Z,23.00
2018-04-14T15:15:23.448Z,23.07
2018-04-14T15:17:50.923Z,22.73
2018-04-14T15:20:18.326Z,26.23
2018-04-14T15:22:45.765Z,30.03
2018-04-14T15:25:13.180Z,31.90
2018-04-14T15:27:40.600Z,30.90
2018-04-14T15:30:07.983Z,31.57
2018-04-14T15:32:35.368Z,30.90
2018-04-14T15:35:02.778Z,32.00
2018-04-14T15:37:30.156Z,29.63
2018-04-14T15:39:57.653Z,28.73
2018-04-14T15:42:26.040Z,30.23
2018-04-14T15:44:53.444Z,29.77
2018-04-14T15:47:20.843Z,31.47
2018-04-14T15:49:48.230Z,29.20
2018-04-14T15:52:15.612Z,31.50
2018-04-14T15:54:42.970Z,31.60
2018-04-14T15:57:10.378Z,31.60
2018-04-14T15:59:37.755Z,31.73
2018-04-14T16:02:05.214Z,26.57
2018-04-14T16:04:32.581Z,28.90
2018-04-14T16:06:59.937Z,27.40
2018-04-14T16:09:27.345Z,28.53
2018-04-14T16:11:54.703Z,27.83
2018-04-14T16:14:22.112Z,29.03
2018-04-14T16:16:49.563Z,28.10
2018-04-14T16:19:16.951Z,28.00
2018-04-14T16:21:44.319Z,26.13
2018-04-14T16:24:11.741Z,26.73
2018-04-14T16:26:39.114Z,27.53
2018-04-14T16:29:06.522Z,27.47
2018-04-14T16:31:33.936Z,26.37
2018-04-14T16:34:01.285Z,25.40
2018-04-14T16:36:28.699Z,25.20
2018-04-14T16:38:56.107Z,25.00
2018-04-14T16:41:23.521Z,26.20
2018-04-14T16:43:50.943Z,27.07
2018-04-14T16:46:18.340Z,27.17
2018-04-14T16:48:45.810Z,27.73
2018-04-14T16:51:13.222Z,27.23
2018-04-14T16:53:40.636Z,29.60
2018-04-14T16:56:08.065Z,30.20
2018-04-14T16:58:35.426Z,30.20
2018-04-14T17:01:02.788Z,30.47
2018-04-14T17:03:30.218Z,30.70
2018-04-14T17:05:57.598Z,29.97
2018-04-14T17:08:24.951Z,29.47
2018-04-14T17:10:52.370Z,30.13
2018-04-14T17:13:19.722Z,28.90
2018-04-14T17:15:47.101Z,30.17
2018-04-14T17:18:14.525Z,29.10
2018-04-14T17:20:41.920Z,28.73
2018-04-14T17:23:09.276Z,30.23
2018-04-14T17:25:36.662Z,28.73
2018-04-14T17:28:04.026Z,27.60
2018-04-14T17:30:34.722Z,26.97
2018-04-14T17:33:02.127Z,28.10
2018-04-14T17:35:29.474Z,28.60
2018-04-14T17:37:56.875Z,27.00
2018-04-14T17:40:24.324Z,28.87
2018-04-14T17:42:51.723Z,27.93
2018-04-14T17:45:19.126Z,28.07
2018-04-14T17:47:46.527Z,27.10
2018-04-14T17:50:13.917Z,26.03
2018-04-14T17:52:41.270Z,27.90
2018-04-14T17:55:08.672Z,27.67
2018-04-14T17:57:36.087Z,26.27
2018-04-14T18:00:03.634Z,27.20
2018-04-14T18:02:31.005Z,29.20
2018-04-14T18:04:58.407Z,30.17
2018-04-14T18:07:25.840Z,30.90
2018-04-14T18:09:53.293Z,28.37
2018-04-14T18:12:20.815Z,30.57
2018-04-14T18:14:48.207Z,30.00
2018-04-14T18:17:15.570Z,34.23
2018-04-14T18:19:43.019Z,34.90
2018-04-14T18:22:10.404Z,35.20
2018-04-14T18:24:37.790Z,38.23
2018-04-14T18:27:05.178Z,39.47
2018-04-14T18:29:32.522Z,45.90
2018-04-14T18:31:59.944Z,37.27
2018-04-14T18:34:27.334Z,40.10
2018-04-14T18:36:54.729Z,40.50
2018-04-14T18:39:22.225Z,32.20
2018-04-14T18:41:49.583Z,33.10
2018-04-14T18:44:17.007Z,33.57
2018-04-14T18:46:44.384Z,36.20
2018-04-14T18:49:11.723Z,38.70
2018-04-14T18:51:39.151Z,42.00
2018-04-14T18:54:06.943Z,42.30
2018-04-14T18:56:34.589Z,41.83
2018-04-14T18:59:01.973Z,38.50
2018-04-14T19:01:29.341Z,40.90
2018-04-14T19:03:56.760Z,41.93
2018-04-14T19:06:24.351Z,38.40
2018-04-14T19:08:51.921Z,40.70
2018-04-14T19:11:19.461Z,41.90
2018-04-14T19:13:46.852Z,41.60
2018-04-14T19:16:14.393Z,42.93
2018-04-14T19:18:41.745Z,42.07
2018-04-14T19:21:09.100Z,45.67
2018-04-14T19:23:36.797Z,43.30
2018-04-14T19:26:04.233Z,44.20
2018-04-14T19:28:31.779Z,45.37
2018-04-14T19:30:59.543Z,47.40
2018-04-14T19:33:27.111Z,47.83
2018-04-14T19:35:54.559Z,48.97
2018-04-14T19:38:21.946Z,48.30
2018-04-14T19:40:49.666Z,49.27
2018-04-14T19:43:17.159Z,52.23
2018-04-14T19:45:44.582Z,52.03
2018-04-14T19:48:12.052Z,52.13
2018-04-14T19:50:39.683Z,51.30
2018-04-14T19:53:07.370Z,52.00
2018-04-14T19:55:34.867Z,53.73
2018-04-14T19:58:02.255Z,57.63
2018-04-14T20:00:29.614Z,56.50
2018-04-14T20:02:57.073Z,57.00
2018-04-14T20:05:24.538Z,57.00
2018-04-14T20:07:51.928Z,55.53
2018-04-14T20:10:19.383Z,61.83
2018-04-14T20:12:47.037Z,60.17
2018-04-14T20:15:14.566Z,58.60
2018-04-14T20:17:42.036Z,60.50
2018-04-14T20:20:09.634Z,58.70
2018-04-14T20:22:37.028Z,58.83
2018-04-14T20:25:04.421Z,58.97
2018-04-14T20:27:32.027Z,63.23
2018-04-14T20:29:59.452Z,65.33
2018-04-14T20:32:27.188Z,67.77
2018-04-14T20:34:54.713Z,68.60
2018-04-14T20:37:22.163Z,64.43
2018-04-14T20:39:49.575Z,64.07
2018-04-14T20:42:16.957Z,65.33
2018-04-14T20:44:44.518Z,64.97
2018-04-14T20:47:11.895Z,64.97
2018-04-14T20:49:39.481Z,69.40
2018-04-14T20:52:06.927Z,70.47
2018-04-14T20:54:34.351Z,71.77
2018-04-14T20:57:01.706Z,71.50
2018-04-14T20:59:29.059Z,72.10
2018-04-14T21:01:56.569Z,70.70
2018-04-14T21:04:23.949Z,71.47
2018-04-14T21:06:51.314Z,71.53
2018-04-14T21:09:18.782Z,73.90
2018-04-14T21:11:46.298Z,73.40
2018-04-14T21:14:13.666Z,71.70
2018-04-14T21:16:41.181Z,74.37
2018-04-14T21:19:08.822Z,76.03
2018-04-14T21:21:36.238Z,77.20
2018-04-14T21:24:03.663Z,77.60
2018-04-14T21:26:32.253Z,79.70
2018-04-14T21:29:01.138Z,80.33
2018-04-14T21:31:28.636Z,77.40
2018-04-14T21:33:56.023Z,79.63
2018-04-14T21:36:23.423Z,76.90
2018-04-14T21:38:50.783Z,80.90
2018-04-14T21:41:18.211Z,82.83
2018-04-14T21:43:45.606Z,81.30
2018-04-14T21:46:12.988Z,87.37
2018-04-14T21:48:40.407Z,83.40
2018-04-14T21:51:07.801Z,81.17
2018-04-14T21:53:35.188Z,86.20
2018-04-14T21:56:02.648Z,81.03
2018-04-14T21:58:30.055Z,82.87
2018-04-14T22:00:57.408Z,80.30
2018-04-14T22:03:24.767Z,80.37
2018-04-14T22:05:52.162Z,82.97
2018-04-14T22:08:19.547Z,78.77
2018-04-14T22:10:46.912Z,82.67
2018-04-14T22:13:14.328Z,81.50
2018-04-14T22:15:41.740Z,80.63
2018-04-14T22:18:09.131Z,79.97
2018-04-14T22:20:36.490Z,77.97
2018-04-14T22:23:03.871Z,75.90
2018-04-14T22:25:31.260Z,79.70
2018-04-14T22:27:58.695Z,75.27
2018-04-14T22:30:26.055Z,78.60
2018-04-14T22:32:53.440Z,78.10
2018-04-14T22:35:20.856Z,95.23
2018-04-14T22:37:48.317Z,85.70
2018-04-14T22:40:15.704Z,84.37
2018-04-14T22:42:43.072Z,85.30
2018-04-14T22:45:10.507Z,84.40
2018-04-14T22:47:38.130Z,83.40
2018-04-14T22:50:05.524Z,84.00
2018-04-14T22:52:32.919Z,80.73
2018-04-14T22:55:00.298Z,79.00
2018-04-14T22:57:27.663Z,77.13
2018-04-14T22:59:55.671Z,78.37
2018-04-14T23:02:23.060Z,81.27
2018-04-14T23:04:50.470Z,82.00
2018-04-14T23:07:17.856Z,80.37
2018-04-14T23:09:45.307Z,88.53
2018-04-14T23:12:13.007Z,81.20
2018-04-14T23:14:40.487Z,79.40
2018-04-14T23:17:07.871Z,79.40
2018-04-14T23:19:35.381Z,76.50
2018-04-14T23:22:02.787Z,76.20
2018-04-14T23:24:30.138Z,74.27
2018-04-14T23:26:57.529Z,71.63
2018-04-14T23:29:24.955Z,67.50
2018-04-14T23:31:52.315Z,65.67
2018-04-14T23:34:19.810Z,64.80
2018-04-14T23:36:47.221Z,67.10
2018-04-14T23:39:14.610Z,67.40
2018-04-14T23:41:41.972Z,65.80
2018-04-14T23:44:09.392Z,62.03
2018-04-14T23:46:36.789Z,65.67
2018-04-14T23:49:04.324Z,67.70
2018-04-14T23:51:31.800Z,66.30
2018-04-14T23:53:59.231Z,70.00
2018-04-14T23:56:26.598Z,65.47
2018-04-14T23:58:54.032Z,64.90
